createdAt,value
2023-01-06T00:02:18.282Z,15.27
2023-01-06T00:04:47.291Z,13.57
2023-01-06T00:07:16.030Z,14.23
2023-01-06T00:09:44.335Z,12.93
2023-01-06T00:12:12.427Z,12.27
2023-01-06T00:14:42.713Z,12.17
2023-01-06T00:17:11.037Z,13.47
2023-01-06T00:19:40.789Z,14.10
2023-01-06T00:22:08.929Z,14.33
2023-01-06T00:24:43.180Z,13.80
2023-01-06T00:27:11.498Z,13.80
2023-01-06T00:29:39.748Z,14.93
2023-01-06T00:32:07.881Z,13.43
2023-01-06T00:34:36.265Z,14.00
2023-01-06T00:37:05.699Z,13.40
2023-01-06T00:39:33.892Z,12.83
2023-01-06T00:42:04.782Z,13.63
2023-01-06T00:44:33.419Z,13.00
2023-01-06T00:47:11.754Z,13.33
2023-01-06T00:49:40.585Z,13.07
2023-01-06T00:52:10.247Z,12.47
2023-01-06T00:54:38.692Z,13.13
2023-01-06T00:57:08.319Z,12.87
2023-01-06T00:59:36.758Z,12.00
2023-01-06T01:02:07.209Z,13.00
2023-01-06T01:04:36.871Z,17.70
2023-01-06T01:07:05.210Z,11.83
2023-01-06T01:09:37.971Z,12.07
2023-01-06T01:12:12.934Z,13.13
2023-01-06T01:14:44.179Z,11.27
2023-01-06T01:17:13.866Z,11.87
2023-01-06T01:19:42.899Z,11.23
2023-01-06T01:22:11.264Z,11.20
2023-01-06T01:24:40.833Z,11.60
2023-01-06T01:27:09.017Z,10.83
2023-01-06T01:29:37.614Z,10.77
2023-01-06T01:32:06.389Z,10.77
2023-01-06T01:34:34.412Z,10.20
2023-01-06T01:37:02.480Z,10.33
2023-01-06T01:39:31.589Z,11.23
2023-01-06T01:42:01.140Z,10.07
2023-01-06T01:45:01.961Z,12.47
2023-01-06T01:47:50.922Z,10.83
2023-01-06T01:50:26.984Z,10.00
2023-01-06T01:53:00.025Z,9.90
2023-01-06T01:55:30.185Z,9.27
2023-01-06T01:58:03.956Z,9.20
2023-01-06T02:00:31.975Z,9.47
2023-01-06T02:03:03.182Z,9.70
2023-01-06T02:05:32.412Z,10.17
2023-01-06T02:08:04.365Z,9.63
2023-01-06T02:10:32.651Z,10.47
2023-01-06T02:13:03.124Z,10.37
2023-01-06T02:15:33.684Z,10.33
2023-01-06T02:18:27.037Z,10.80
2023-01-06T02:21:10.776Z,10.30
2023-01-06T02:24:22.657Z,9.97
2023-01-06T02:27:44.428Z,9.77
2023-01-06T02:30:42.884Z,9.00
2023-01-06T02:33:20.151Z,8.17
2023-01-06T02:36:19.266Z,8.80
2023-01-06T02:39:11.520Z,8.40
2023-01-06T02:41:44.308Z,8.97
2023-01-06T02:44:22.147Z,9.50
2023-01-06T02:47:14.084Z,8.73
2023-01-06T02:50:14.914Z,9.97
2023-01-06T02:52:46.942Z,8.13
2023-01-06T02:55:22.862Z,7.30
2023-01-06T02:57:54.467Z,8.53
2023-01-06T03:00:27.942Z,8.63
2023-01-06T03:03:00.077Z,8.27
2023-01-06T03:05:31.923Z,8.93
2023-01-06T03:08:03.800Z,7.73
2023-01-06T03:10:32.539Z,7.83
2023-01-06T03:13:06.476Z,8.43
2023-01-06T03:15:34.635Z,6.97
2023-01-06T03:18:03.209Z,7.07
2023-01-06T03:20:32.938Z,6.70
2023-01-06T03:23:00.995Z,7.10
2023-01-06T03:25:29.045Z,7.00
2023-01-06T03:27:57.443Z,6.87
2023-01-06T03:30:35.898Z,7.13
2023-01-06T03:33:08.917Z,7.20
2023-01-06T03:35:48.801Z,6.73
2023-01-06T03:38:27.641Z,6.50
2023-01-06T03:41:01.233Z,7.10
2023-01-06T03:43:34.714Z,7.20
2023-01-06T03:46:16.543Z,7.83
2023-01-06T03:48:55.436Z,7.57
2023-01-06T03:51:39.867Z,7.53
2023-01-06T03:54:16.709Z,7.30
2023-01-06T03:56:51.110Z,6.87
2023-01-06T03:59:23.440Z,7.30
2023-01-06T04:01:52.085Z,6.63
2023-01-06T04:04:20.568Z,7.07
2023-01-06T04:06:50.329Z,6.37
2023-01-06T04:09:18.431Z,6.87
2023-01-06T04:12:04.072Z,6.70
2023-01-06T04:14:32.151Z,6.73
2023-01-06T04:17:00.195Z,6.73
2023-01-06T04:19:28.834Z,6.40
2023-01-06T04:21:58.477Z,6.80
2023-01-06T04:24:28.480Z,6.70
2023-01-06T04:26:56.553Z,5.80
2023-01-06T04:29:24.568Z,5.87
2023-01-06T04:31:52.776Z,5.60
2023-01-06T04:34:20.835Z,6.33
2023-01-06T04:36:48.992Z,5.50
2023-01-06T04:39:18.604Z,5.00
2023-01-06T04:41:46.668Z,6.00
2023-01-06T04:44:14.777Z,5.60
2023-01-06T04:46:42.764Z,5.63
2023-01-06T04:49:11.328Z,5.87
2023-01-06T04:51:39.321Z,5.00
2023-01-06T04:54:07.795Z,5.20
2023-01-06T04:56:37.558Z,5.50
2023-01-06T04:59:05.823Z,5.33
2023-01-06T05:01:33.930Z,5.80
2023-01-06T05:04:02.786Z,6.47
2023-01-06T05:06:30.840Z,6.07
2023-01-06T05:08:58.920Z,7.83
2023-01-06T05:11:27.819Z,5.93
2023-01-06T05:13:57.492Z,6.03
2023-01-06T05:16:28.692Z,5.27
2023-01-06T05:18:57.697Z,5.63
2023-01-06T05:21:27.944Z,6.33
2023-01-06T05:23:56.934Z,6.53
2023-01-06T05:26:27.564Z,5.80
2023-01-06T05:28:57.286Z,6.10
2023-01-06T05:31:25.514Z,5.50
2023-01-06T05:33:53.516Z,6.23
2023-01-06T05:36:21.614Z,6.30
2023-01-06T05:38:53.442Z,6.27
2023-01-06T05:41:22.229Z,5.73
2023-01-06T05:43:50.414Z,5.70
2023-01-06T05:46:19.901Z,5.87
2023-01-06T05:48:48.190Z,5.83
2023-01-06T05:51:17.501Z,5.63
2023-01-06T05:53:48.156Z,5.83
2023-01-06T05:56:18.062Z,6.17
2023-01-06T05:58:47.395Z,5.53
2023-01-06T06:01:22.490Z,6.43
2023-01-06T06:03:51.444Z,5.47
2023-01-06T06:06:20.469Z,6.57
2023-01-06T06:08:48.922Z,6.40
2023-01-06T06:11:19.979Z,5.40
2023-01-06T06:13:48.530Z,5.23
2023-01-06T06:16:20.181Z,6.20
2023-01-06T06:18:51.288Z,6.40
2023-01-06T06:21:22.055Z,5.70
2023-01-06T06:23:50.676Z,4.93
2023-01-06T06:26:18.918Z,4.73
2023-01-06T06:28:46.989Z,4.90
2023-01-06T06:31:17.784Z,4.70
2023-01-06T06:33:47.903Z,5.17
2023-01-06T06:36:19.044Z,5.60
2023-01-06T06:38:48.888Z,5.73
2023-01-06T06:41:17.182Z,5.67
2023-01-06T06:43:45.623Z,6.23
2023-01-06T06:46:13.840Z,8.80
2023-01-06T06:48:41.854Z,12.30
2023-01-06T06:51:13.992Z,5.70
2023-01-06T06:53:42.246Z,4.90
2023-01-06T06:56:11.475Z,6.27
2023-01-06T06:58:40.213Z,5.93
2023-01-06T07:01:09.795Z,7.37
2023-01-06T07:03:38.145Z,4.47
2023-01-06T07:06:09.413Z,4.40
2023-01-06T07:08:38.794Z,4.90
2023-01-06T07:11:06.923Z,4.60
2023-01-06T07:13:34.933Z,4.87
2023-01-06T07:16:03.137Z,5.50
2023-01-06T07:18:31.230Z,5.13
2023-01-06T07:20:59.264Z,5.60
2023-01-06T07:23:27.447Z,5.43
2023-01-06T07:25:58.634Z,6.93
2023-01-06T07:28:28.463Z,4.90
2023-01-06T07:30:56.824Z,6.00
2023-01-06T07:33:25.562Z,6.30
2023-01-06T07:35:54.681Z,6.37
2023-01-06T07:38:23.335Z,6.63
2023-01-06T07:40:52.059Z,6.70
2023-01-06T07:43:21.676Z,7.50
2023-01-06T07:45:50.144Z,7.80
2023-01-06T07:48:18.595Z,7.73
2023-01-06T07:50:46.607Z,7.47
2023-01-06T07:53:14.676Z,7.20
2023-01-06T07:55:42.751Z,7.40
2023-01-06T07:58:11.497Z,7.40
2023-01-06T08:00:40.955Z,6.03
2023-01-06T08:03:09.449Z,5.57
2023-01-06T08:05:41.490Z,5.40
2023-01-06T08:08:09.958Z,5.80
2023-01-06T08:10:41.077Z,5.77
2023-01-06T08:13:09.178Z,6.20
2023-01-06T08:15:38.333Z,5.97
2023-01-06T08:18:08.554Z,5.90
2023-01-06T08:20:36.678Z,5.60
2023-01-06T08:23:05.316Z,6.30
2023-01-06T08:25:33.833Z,7.27
2023-01-06T08:28:01.902Z,6.90
2023-01-06T08:30:30.121Z,7.50
2023-01-06T08:32:58.682Z,7.37
2023-01-06T08:35:28.430Z,8.67
2023-01-06T08:37:56.921Z,9.93
2023-01-06T08:40:25.303Z,8.83
2023-01-06T08:42:53.572Z,9.87
2023-01-06T08:45:21.555Z,6.57
2023-01-06T08:47:49.618Z,6.20
2023-01-06T08:50:17.594Z,6.67
2023-01-06T08:52:46.960Z,6.03
2023-01-06T08:55:15.035Z,7.37
2023-01-06T08:57:43.011Z,7.47
2023-01-06T09:00:12.177Z,7.57
2023-01-06T09:02:40.161Z,7.57
2023-01-06T09:05:09.052Z,8.30
2023-01-06T09:07:37.148Z,7.20
2023-01-06T09:10:07.614Z,7.00
2023-01-06T09:12:35.669Z,7.00
2023-01-06T09:15:03.740Z,5.57
2023-01-06T09:17:31.837Z,5.80
2023-01-06T09:19:59.821Z,5.43
2023-01-06T09:22:28.072Z,4.90
2023-01-06T09:28:21.579Z,5.20
2023-01-06T09:30:50.085Z,5.40
2023-01-06T09:33:18.679Z,5.27
2023-01-06T09:35:50.537Z,4.70
2023-01-06T09:38:18.540Z,5.03
2023-01-06T09:41:02.428Z,7.00
2023-01-06T09:43:44.216Z,5.17
2023-01-06T09:46:15.825Z,4.97
2023-01-06T09:48:49.811Z,5.23
2023-01-06T09:51:24.129Z,5.03
2023-01-06T09:53:57.891Z,5.17
2023-01-06T09:56:26.645Z,5.20
2023-01-06T09:59:08.602Z,5.23
2023-01-06T10:01:41.534Z,7.27
2023-01-06T10:04:18.182Z,5.23
2023-01-06T10:07:00.247Z,5.53
2023-01-06T10:09:36.490Z,5.73
2023-01-06T10:12:19.440Z,5.80
2023-01-06T10:15:00.134Z,5.27
2023-01-06T10:18:07.989Z,5.37
2023-01-06T10:20:51.901Z,5.77
2023-01-06T10:23:33.131Z,5.83
2023-01-06T10:26:11.188Z,5.33
2023-01-06T10:28:43.676Z,5.43
2023-01-06T10:31:17.166Z,5.83
2023-01-06T10:33:49.789Z,7.87
2023-01-06T10:36:22.056Z,8.07
2023-01-06T10:38:53.667Z,6.73
2023-01-06T10:41:26.747Z,5.43
2023-01-06T10:43:54.792Z,5.33
2023-01-06T10:46:30.737Z,6.00
2023-01-06T10:48:58.905Z,5.67
2023-01-06T10:51:36.201Z,5.27
2023-01-06T10:54:09.630Z,5.27
2023-01-06T10:56:39.782Z,6.60
2023-01-06T10:59:10.010Z,5.60
2023-01-06T11:01:51.619Z,5.40
2023-01-06T11:04:21.681Z,5.50
2023-01-06T11:06:55.484Z,5.30
2023-01-06T11:09:28.068Z,5.70
2023-01-06T11:11:58.622Z,5.47
2023-01-06T11:14:30.149Z,4.37
2023-01-06T11:17:02.257Z,5.50
2023-01-06T11:19:37.129Z,5.33
2023-01-06T11:22:05.999Z,5.77
2023-01-06T11:24:34.097Z,5.03
2023-01-06T11:27:16.902Z,5.37
2023-01-06T11:29:45.079Z,6.10
2023-01-06T11:32:18.259Z,4.77
2023-01-06T11:34:54.556Z,4.33
2023-01-06T11:37:32.278Z,3.97
2023-01-06T11:40:10.453Z,4.63
2023-01-06T11:45:32.344Z,1.83
2023-01-06T11:48:02.162Z,2.30
2023-01-06T11:50:30.178Z,2.47
2023-01-06T11:53:02.225Z,3.10
2023-01-06T11:55:30.805Z,3.00
2023-01-06T11:58:04.282Z,2.63
2023-01-06T12:00:47.341Z,2.70
2023-01-06T12:03:25.286Z,2.30
2023-01-06T12:05:57.935Z,2.40
2023-01-06T12:08:29.662Z,2.43
2023-01-06T12:11:04.255Z,2.13
2023-01-06T12:13:44.397Z,2.73
2023-01-06T12:16:28.068Z,2.00
2023-01-06T12:18:57.739Z,2.40
2023-01-06T12:21:30.535Z,2.13
2023-01-06T12:24:02.349Z,1.70
2023-01-06T12:26:33.125Z,2.17
2023-01-06T12:29:03.427Z,1.90
2023-01-06T12:31:44.583Z,2.33
2023-01-06T12:34:18.400Z,2.40
2023-01-06T12:36:51.574Z,3.60
2023-01-06T12:39:26.566Z,2.27
2023-01-06T12:41:59.191Z,2.40
2023-01-06T12:44:40.132Z,2.50
2023-01-06T12:47:16.099Z,2.70
2023-01-06T12:49:52.993Z,2.63
2023-01-06T12:52:25.909Z,4.03
2023-01-06T12:54:57.219Z,2.70
2023-01-06T12:57:37.856Z,2.70
2023-01-06T13:00:20.218Z,3.80
2023-01-06T13:03:00.853Z,3.03
2023-01-06T13:05:42.270Z,2.67
2023-01-06T13:08:25.925Z,3.20
2023-01-06T13:11:04.061Z,3.63
2023-01-06T13:13:55.751Z,3.10
2023-01-06T13:16:32.471Z,2.40
2023-01-06T13:19:08.763Z,2.33
2023-01-06T13:21:39.559Z,2.50
2023-01-06T13:24:25.240Z,2.87
2023-01-06T13:27:24.851Z,2.73
2023-01-06T13:30:15.554Z,2.90
2023-01-06T13:33:03.185Z,2.80
2023-01-06T13:35:56.271Z,2.60
2023-01-06T13:38:46.084Z,2.60
2023-01-06T13:41:18.557Z,2.63
2023-01-06T13:43:49.595Z,2.40
2023-01-06T13:46:20.475Z,2.10
2023-01-06T13:48:52.203Z,2.70
2023-01-06T13:51:23.803Z,2.20
2023-01-06T13:53:54.851Z,2.90
2023-01-06T13:56:28.125Z,2.53
2023-01-06T13:59:24.961Z,2.37
2023-01-06T14:01:54.980Z,4.00
2023-01-06T14:04:48.717Z,2.77
2023-01-06T14:07:35.684Z,2.30
2023-01-06T14:10:08.633Z,2.40
2023-01-06T14:12:38.182Z,2.50
2023-01-06T14:15:09.611Z,2.40
2023-01-06T14:17:43.180Z,2.67
2023-01-06T14:20:28.541Z,2.37
2023-01-06T14:23:02.465Z,2.10
2023-01-06T14:25:36.201Z,2.00
2023-01-06T14:28:27.472Z,2.10
2023-01-06T14:31:28.573Z,3.37
2023-01-06T14:33:58.373Z,3.43
2023-01-06T14:36:27.875Z,2.47
2023-01-06T14:38:59.631Z,2.20
2023-01-06T14:41:31.278Z,3.33
2023-01-06T14:44:03.674Z,2.80
2023-01-06T14:46:35.284Z,2.30
2023-01-06T14:49:06.002Z,2.10
2023-01-06T14:51:35.325Z,2.20
2023-01-06T14:54:06.611Z,2.13
2023-01-06T14:56:37.640Z,2.13
2023-01-06T14:59:10.725Z,2.83
2023-01-06T15:01:40.699Z,2.00
2023-01-06T15:04:25.258Z,2.10
2023-01-06T15:07:17.906Z,2.03
2023-01-06T15:09:46.767Z,3.00
2023-01-06T15:12:29.624Z,1.97
2023-01-06T15:14:59.011Z,2.10
2023-01-06T15:17:28.765Z,1.93
2023-01-06T15:19:56.727Z,4.00
2023-01-06T15:22:26.450Z,3.57
2023-01-06T15:24:55.765Z,2.23
2023-01-06T15:27:25.341Z,2.33
2023-01-06T15:29:56.256Z,2.00
2023-01-06T15:32:26.981Z,2.30
2023-01-06T15:34:58.392Z,2.63
2023-01-06T15:37:28.079Z,2.10
2023-01-06T15:39:56.403Z,2.20
2023-01-06T15:42:27.611Z,2.30
2023-01-06T15:44:58.629Z,2.53
2023-01-06T15:47:32.597Z,2.10
2023-01-06T15:50:03.293Z,2.80
2023-01-06T15:52:34.225Z,2.50
2023-01-06T15:55:04.963Z,2.50
2023-01-06T15:57:37.256Z,2.80
2023-01-06T16:00:09.533Z,4.27
2023-01-06T16:02:37.979Z,4.10
2023-01-06T16:05:06.799Z,4.00
2023-01-06T16:07:39.409Z,3.53
2023-01-06T16:10:32.568Z,5.13
2023-01-06T16:13:16.005Z,4.00
2023-01-06T16:15:50.516Z,3.53
2023-01-06T16:18:27.335Z,21.87
2023-01-06T16:20:55.742Z,5.00
2023-01-06T16:23:30.615Z,13.83
2023-01-06T16:26:16.406Z,21.43
2023-01-06T16:28:48.522Z,10.63
2023-01-06T16:31:30.582Z,8.87
2023-01-06T16:34:16.312Z,4.77
2023-01-06T16:36:44.550Z,6.10
2023-01-06T16:39:12.505Z,6.03
2023-01-06T16:42:31.925Z,12.37
2023-01-06T16:45:03.088Z,8.90
2023-01-06T16:47:32.674Z,6.57
2023-01-06T16:50:02.639Z,18.87
2023-01-06T16:52:30.702Z,14.67
2023-01-06T16:54:59.134Z,7.03
2023-01-06T16:57:27.178Z,10.03
2023-01-06T16:59:55.221Z,7.07
2023-01-06T17:02:23.268Z,7.60
2023-01-06T17:04:53.637Z,6.67
2023-01-06T17:07:21.700Z,10.30
2023-01-06T17:09:50.722Z,39.50
2023-01-06T17:12:39.377Z,27.80
2023-01-06T17:15:11.233Z,14.63
2023-01-06T17:17:41.310Z,22.90
2023-01-06T17:20:13.699Z,76.83
2023-01-06T17:22:41.777Z,53.53
2023-01-06T17:25:14.604Z,16.93
2023-01-06T17:27:44.558Z,32.80
2023-01-06T17:30:19.945Z,73.67
2023-01-06T17:32:48.941Z,26.77
2023-01-06T17:35:27.489Z,35.50
2023-01-06T17:37:55.861Z,71.90
2023-01-06T17:40:28.993Z,65.43
2023-01-06T17:43:02.904Z,35.70
2023-01-06T17:45:31.321Z,27.87
2023-01-06T17:48:01.817Z,43.13
2023-01-06T17:50:32.916Z,42.30
2023-01-06T17:53:32.913Z,48.07
2023-01-06T17:56:02.832Z,28.63
2023-01-06T17:58:37.594Z,27.83
2023-01-06T18:01:08.358Z,30.20
2023-01-06T18:03:39.206Z,30.10
2023-01-06T18:06:19.468Z,36.73
2023-01-06T18:08:49.347Z,39.17
2023-01-06T18:11:29.690Z,30.30
2023-01-06T18:14:03.037Z,31.83
2023-01-06T18:16:32.900Z,35.00
2023-01-06T18:19:23.328Z,41.83
2023-01-06T18:21:53.991Z,41.60
2023-01-06T18:24:27.061Z,33.17
2023-01-06T18:26:57.430Z,33.93
2023-01-06T18:29:27.442Z,34.20
2023-01-06T18:31:55.727Z,29.67
2023-01-06T18:34:35.747Z,30.03
2023-01-06T18:37:05.443Z,30.23
2023-01-06T18:39:39.976Z,29.03
2023-01-06T18:42:23.164Z,30.80
2023-01-06T18:44:56.720Z,36.03
2023-01-06T18:47:25.584Z,29.20
2023-01-06T18:49:59.339Z,37.27
2023-01-06T18:52:45.690Z,32.70
2023-01-06T18:55:25.999Z,64.33
2023-01-06T18:58:00.379Z,32.97
2023-01-06T19:00:37.993Z,33.87
2023-01-06T19:03:20.540Z,32.07
2023-01-06T19:05:49.034Z,32.07
2023-01-06T19:08:28.193Z,46.30
2023-01-06T19:10:56.238Z,58.07
2023-01-06T19:13:27.952Z,45.20
2023-01-06T19:15:58.785Z,35.33
2023-01-06T19:18:33.939Z,30.43
2023-01-06T19:21:06.585Z,36.03
2023-01-06T19:23:36.362Z,30.20
2023-01-06T19:26:06.515Z,29.67
2023-01-06T19:28:35.681Z,27.93
2023-01-06T19:31:08.541Z,33.30
2023-01-06T19:33:42.721Z,29.77
2023-01-06T19:36:38.745Z,27.30
2023-01-06T19:39:23.911Z,30.20
2023-01-06T19:41:54.388Z,24.23
2023-01-06T19:44:28.725Z,24.60
2023-01-06T19:46:56.903Z,24.00
2023-01-06T19:49:27.277Z,24.13
2023-01-06T19:51:56.079Z,24.57
2023-01-06T19:54:28.391Z,26.00
2023-01-06T19:56:57.600Z,24.30
2023-01-06T19:59:29.352Z,28.03
2023-01-06T20:02:04.283Z,26.40
2023-01-06T20:04:32.499Z,23.53
2023-01-06T20:07:02.184Z,23.70
2023-01-06T20:09:34.416Z,21.30
2023-01-06T20:12:02.470Z,22.70
2023-01-06T20:14:30.411Z,24.73
2023-01-06T20:16:59.640Z,24.57
2023-01-06T20:19:27.603Z,25.40
2023-01-06T20:21:55.548Z,24.87
2023-01-06T20:24:23.552Z,24.53
2023-01-06T20:26:52.928Z,24.77
2023-01-06T20:29:20.904Z,22.40
2023-01-06T20:31:49.117Z,25.60
2023-01-06T20:34:17.125Z,23.50
2023-01-06T20:36:45.129Z,24.27
2023-01-06T20:39:15.314Z,24.33
2023-01-06T20:41:43.448Z,22.83
2023-01-06T20:44:13.176Z,22.83
2023-01-06T20:46:41.375Z,24.23
2023-01-06T20:49:09.532Z,25.07
2023-01-06T20:51:37.545Z,23.80
2023-01-06T20:54:06.738Z,23.03
2023-01-06T20:56:34.722Z,22.17
2023-01-06T20:59:02.852Z,22.87
2023-01-06T21:01:32.450Z,22.70
2023-01-06T21:04:00.731Z,21.40
2023-01-06T21:06:28.739Z,22.63
2023-01-06T21:08:56.737Z,21.97
2023-01-06T21:11:24.856Z,24.73
2023-01-06T21:13:55.647Z,21.97
2023-01-06T21:16:23.778Z,23.83
2023-01-06T21:18:53.444Z,24.37
2023-01-06T21:21:23.529Z,28.10
2023-01-06T21:23:51.661Z,28.00
2023-01-06T21:26:19.682Z,25.03
2023-01-06T21:28:48.161Z,27.27
2023-01-06T21:31:16.304Z,26.43
2023-01-06T21:33:44.576Z,23.67
2023-01-06T21:36:14.321Z,24.00
2023-01-06T21:38:42.323Z,24.40
2023-01-06T21:41:28.136Z,23.90
2023-01-06T21:43:57.807Z,24.37
2023-01-06T21:46:25.968Z,23.23
2023-01-06T21:48:56.255Z,23.00
2023-01-06T21:51:25.799Z,22.47
2023-01-06T21:53:56.952Z,21.97
2023-01-06T21:56:25.081Z,21.80
2023-01-06T21:58:54.074Z,22.20
2023-01-06T22:01:22.298Z,22.37
2023-01-06T22:03:50.408Z,23.10
2023-01-06T22:06:19.511Z,22.90
2023-01-06T22:08:51.193Z,22.73
2023-01-06T22:11:19.530Z,21.67
2023-01-06T22:13:47.712Z,21.37
2023-01-06T22:16:15.958Z,21.30
2023-01-06T22:18:44.429Z,20.43
2023-01-06T22:21:13.121Z,21.43
2023-01-06T22:23:41.626Z,20.87
2023-01-06T22:26:11.089Z,22.10
2023-01-06T22:28:39.123Z,21.83
2023-01-06T22:31:07.274Z,21.17
2023-01-06T22:33:35.323Z,22.33
2023-01-06T22:36:03.360Z,23.43
2023-01-06T22:38:32.602Z,24.60
2023-01-06T22:41:00.769Z,24.33
2023-01-06T22:43:30.094Z,23.53
2023-01-06T22:45:58.396Z,23.70
2023-01-06T22:48:27.023Z,23.60
2023-01-06T22:50:58.570Z,27.23
2023-01-06T22:53:30.184Z,23.67
2023-01-06T22:55:59.301Z,22.97
2023-01-06T22:58:29.313Z,24.10
2023-01-06T23:00:57.685Z,23.10
2023-01-06T23:03:28.186Z,24.37
2023-01-06T23:05:58.129Z,22.77
2023-01-06T23:08:27.613Z,24.43
2023-01-06T23:11:00.515Z,23.93
2023-01-06T23:13:30.474Z,25.03
2023-01-06T23:16:03.763Z,23.63
2023-01-06T23:18:32.435Z,22.10
2023-01-06T23:21:02.382Z,23.07
2023-01-06T23:23:31.608Z,23.53
2023-01-06T23:26:03.028Z,23.80
2023-01-06T23:28:32.941Z,24.10
2023-01-06T23:31:05.815Z,32.83
2023-01-06T23:33:37.731Z,33.40
2023-01-06T23:36:06.563Z,25.13
2023-01-06T23:38:34.673Z,24.07
2023-01-06T23:41:04.494Z,24.27
2023-01-06T23:43:35.339Z,27.97
2023-01-06T23:46:04.148Z,21.93
2023-01-06T23:48:33.327Z,23.60
2023-01-06T23:51:02.112Z,25.13
2023-01-06T23:53:30.943Z,24.93
2023-01-06T23:56:01.693Z,23.53
2023-01-06T23:58:32.424Z,23.37
